createdAt,value
2022-07-26T00:00:12.625Z,15.90
2022-07-26T00:02:47.435Z,23.15
2022-07-26T00:05:16.138Z,17.60
2022-07-26T00:07:43.323Z,14.40
2022-07-26T00:10:10.759Z,19.30
2022-07-26T00:12:37.924Z,13.43
2022-07-26T00:15:06.905Z,16.80
2022-07-26T00:17:33.675Z,11.38
2022-07-26T00:20:00.420Z,20.95
2022-07-26T00:22:36.251Z,15.57
2022-07-26T00:25:08.420Z,20.02
2022-07-26T00:27:38.985Z,24.00
2022-07-26T00:30:07.366Z,14.32
2022-07-26T00:32:34.106Z,15.55
2022-07-26T00:35:00.816Z,16.27
2022-07-26T00:37:27.657Z,15.80
2022-07-26T00:39:54.333Z,16.23
2022-07-26T00:42:21.017Z,13.48
2022-07-26T00:44:48.546Z,20.42
2022-07-26T00:47:15.762Z,16.10
2022-07-26T00:49:43.622Z,13.75
2022-07-26T00:52:11.106Z,17.45
2022-07-26T00:54:39.893Z,16.33
2022-07-26T00:57:07.340Z,18.55
2022-07-26T00:59:34.054Z,21.02
2022-07-26T01:02:01.384Z,12.90
2022-07-26T01:04:28.544Z,14.05
2022-07-26T01:06:55.521Z,18.23
2022-07-26T01:09:22.931Z,14.05
2022-07-26T01:11:50.626Z,17.25
2022-07-26T01:14:24.318Z,16.30
2022-07-26T01:16:52.220Z,13.40
2022-07-26T01:19:19.659Z,14.50
2022-07-26T01:21:46.367Z,16.98
2022-07-26T01:24:13.143Z,13.90
2022-07-26T01:26:40.092Z,17.50
2022-07-26T01:29:06.930Z,17.00
2022-07-26T01:31:33.868Z,15.38
2022-07-26T01:34:00.673Z,12.05
2022-07-26T01:36:27.357Z,14.80
2022-07-26T01:38:54.013Z,17.48
2022-07-26T01:41:31.614Z,15.52
2022-07-26T01:44:05.160Z,14.88
2022-07-26T01:46:32.083Z,15.43
2022-07-26T01:48:59.093Z,11.63
2022-07-26T01:51:25.809Z,17.45
2022-07-26T01:53:52.561Z,15.93
2022-07-26T01:56:19.242Z,13.82
2022-07-26T01:58:46.009Z,10.98
2022-07-26T02:01:12.721Z,13.18
2022-07-26T02:03:39.510Z,14.85
2022-07-26T02:06:06.689Z,12.85
2022-07-26T02:08:33.755Z,16.10
2022-07-26T02:11:00.655Z,8.38
2022-07-26T02:13:35.956Z,10.52
2022-07-26T02:16:04.526Z,7.43
2022-07-26T02:18:31.943Z,9.05
2022-07-26T02:21:00.960Z,7.68
2022-07-26T02:23:28.389Z,7.88
2022-07-26T02:25:55.690Z,9.23
2022-07-26T02:28:22.822Z,7.95
2022-07-26T02:30:50.102Z,8.50
2022-07-26T02:33:18.640Z,5.97
2022-07-26T02:35:45.808Z,7.93
2022-07-26T02:38:14.603Z,11.32
2022-07-26T02:40:42.287Z,7.28
2022-07-26T02:43:10.188Z,6.60
2022-07-26T02:45:37.543Z,8.50
2022-07-26T02:48:04.890Z,7.63
2022-07-26T02:50:32.329Z,5.72
2022-07-26T02:52:59.072Z,6.80
2022-07-26T02:55:26.791Z,8.57
2022-07-26T02:57:54.168Z,6.38
2022-07-26T03:00:25.620Z,5.00
2022-07-26T03:02:52.793Z,8.45
2022-07-26T03:05:20.582Z,14.40
2022-07-26T03:07:47.790Z,5.38
2022-07-26T03:10:14.775Z,7.50
2022-07-26T03:12:41.698Z,8.40
2022-07-26T03:15:09.095Z,6.65
2022-07-26T03:17:35.946Z,7.05
2022-07-26T03:20:03.078Z,5.88
2022-07-26T03:22:29.784Z,7.13
2022-07-26T03:24:56.490Z,5.68
2022-07-26T03:27:23.224Z,5.40
2022-07-26T03:29:49.987Z,7.47
2022-07-26T03:32:16.650Z,4.00
2022-07-26T03:34:43.407Z,7.82
2022-07-26T03:37:10.097Z,7.18
2022-07-26T03:39:38.074Z,7.40
2022-07-26T03:42:05.427Z,4.47
2022-07-26T03:44:32.098Z,7.78
2022-07-26T03:46:59.133Z,8.70
2022-07-26T03:49:26.437Z,8.70
2022-07-26T03:51:53.251Z,11.75
2022-07-26T03:54:19.907Z,7.72
2022-07-26T03:56:46.593Z,8.63
2022-07-26T03:59:13.314Z,10.13
2022-07-26T04:01:41.967Z,10.35
2022-07-26T04:04:10.427Z,6.00
2022-07-26T04:06:39.574Z,6.50
2022-07-26T04:09:07.319Z,9.02
2022-07-26T04:11:35.310Z,4.72
2022-07-26T04:14:02.689Z,6.03
2022-07-26T04:16:29.423Z,5.45
2022-07-26T04:18:56.617Z,7.45
2022-07-26T04:21:23.662Z,7.97
2022-07-26T04:23:51.690Z,10.75
2022-07-26T04:26:21.162Z,9.93
2022-07-26T04:28:48.483Z,13.88
2022-07-26T04:31:15.543Z,11.40
2022-07-26T04:33:42.662Z,9.85
2022-07-26T04:36:09.511Z,7.45
2022-07-26T04:38:36.256Z,12.50
2022-07-26T04:41:03.321Z,8.75
2022-07-26T04:43:30.105Z,7.88
2022-07-26T04:46:00.548Z,7.43
2022-07-26T04:48:27.467Z,7.55
2022-07-26T04:50:55.263Z,9.00
2022-07-26T04:53:22.013Z,9.85
2022-07-26T04:55:48.771Z,7.55
2022-07-26T04:58:15.498Z,8.90
2022-07-26T05:03:32.709Z,10.57
2022-07-26T05:05:59.377Z,8.43
2022-07-26T05:08:26.050Z,8.50
2022-07-26T05:10:55.481Z,7.00
2022-07-26T05:13:23.130Z,5.53
2022-07-26T05:15:57.057Z,6.70
2022-07-26T05:18:23.713Z,7.45
2022-07-26T05:20:51.495Z,10.30
2022-07-26T05:23:19.877Z,7.78
2022-07-26T05:25:46.832Z,8.77
2022-07-26T05:28:13.502Z,7.47
2022-07-26T05:30:40.223Z,6.53
2022-07-26T05:33:06.913Z,9.15
2022-07-26T05:35:33.610Z,5.85
2022-07-26T05:38:00.281Z,6.25
2022-07-26T05:40:26.986Z,8.07
2022-07-26T05:42:53.723Z,5.28
2022-07-26T05:45:20.455Z,8.45
2022-07-26T05:47:53.027Z,6.53
2022-07-26T05:50:20.460Z,8.25
2022-07-26T05:52:47.273Z,6.18
2022-07-26T05:55:14.626Z,8.07
2022-07-26T05:57:47.417Z,9.80
2022-07-26T06:00:16.578Z,10.63
2022-07-26T06:02:43.348Z,10.60
2022-07-26T06:05:10.333Z,7.07
2022-07-26T06:07:37.174Z,6.22
2022-07-26T06:10:04.976Z,7.35
2022-07-26T06:12:31.662Z,3.92
2022-07-26T06:14:58.359Z,4.30
2022-07-26T06:17:29.979Z,6.25
2022-07-26T06:19:57.842Z,6.05
2022-07-26T06:22:24.695Z,5.85
2022-07-26T06:24:51.377Z,3.88
2022-07-26T06:27:18.078Z,6.28
2022-07-26T06:29:44.821Z,5.20
2022-07-26T06:32:11.551Z,7.10
2022-07-26T06:34:38.259Z,5.15
2022-07-26T06:37:04.926Z,7.38
2022-07-26T06:39:32.267Z,6.75
2022-07-26T06:41:58.956Z,5.28
2022-07-26T06:44:25.619Z,6.97
2022-07-26T06:46:52.472Z,4.13
2022-07-26T06:49:22.724Z,6.30
2022-07-26T06:51:49.995Z,8.50
2022-07-26T06:54:16.776Z,10.15
2022-07-26T06:56:43.500Z,7.43
2022-07-26T06:59:10.286Z,6.95
2022-07-26T07:01:57.987Z,9.43
2022-07-26T07:04:23.747Z,8.43
2022-07-26T07:06:50.742Z,5.47
2022-07-26T07:09:17.451Z,4.53
2022-07-26T07:11:46.339Z,7.55
2022-07-26T07:14:16.541Z,7.05
2022-07-26T07:16:43.240Z,6.72
2022-07-26T07:19:09.936Z,6.03
2022-07-26T07:21:36.734Z,6.65
2022-07-26T07:24:03.598Z,6.35
2022-07-26T07:26:30.319Z,6.20
2022-07-26T07:28:57.026Z,6.22
2022-07-26T07:31:30.463Z,9.07
2022-07-26T07:34:11.725Z,8.35
2022-07-26T07:36:38.714Z,5.55
2022-07-26T07:39:07.102Z,8.15
2022-07-26T07:41:38.084Z,9.60
2022-07-26T07:44:05.911Z,5.55
2022-07-26T07:46:32.817Z,9.27
2022-07-26T07:48:59.669Z,8.27
2022-07-26T07:51:27.625Z,6.13
2022-07-26T07:53:57.946Z,10.82
2022-07-26T07:56:26.073Z,8.30
2022-07-26T07:58:52.791Z,8.27
2022-07-26T08:01:19.939Z,5.38
2022-07-26T08:03:50.157Z,9.13
2022-07-26T08:06:18.044Z,5.20
2022-07-26T08:08:44.873Z,7.97
2022-07-26T08:11:11.607Z,4.38
2022-07-26T08:13:39.762Z,5.35
2022-07-26T08:16:09.596Z,8.90
2022-07-26T08:18:37.694Z,8.70
2022-07-26T08:21:08.746Z,3.83
2022-07-26T08:23:35.526Z,10.45
2022-07-26T08:26:06.441Z,4.05
2022-07-26T08:28:58.608Z,4.47
2022-07-26T08:31:21.149Z,6.28
2022-07-26T08:33:48.827Z,5.40
2022-07-26T08:36:18.519Z,7.68
2022-07-26T08:38:46.345Z,4.90
2022-07-26T08:41:14.826Z,6.40
2022-07-26T08:43:51.130Z,4.18
2022-07-26T08:46:24.921Z,6.88
2022-07-26T08:48:53.714Z,6.95
2022-07-26T08:51:23.408Z,4.30
2022-07-26T08:53:54.103Z,4.95
2022-07-26T08:56:20.879Z,8.98
2022-07-26T08:58:47.565Z,4.63
2022-07-26T09:01:14.813Z,4.00
2022-07-26T09:03:43.214Z,5.82
2022-07-26T09:06:14.786Z,6.32
2022-07-26T09:08:42.313Z,2.95
2022-07-26T09:11:26.112Z,5.50
2022-07-26T09:14:01.396Z,3.85
2022-07-26T09:16:29.114Z,5.50
2022-07-26T09:19:13.682Z,4.95
2022-07-26T09:21:40.346Z,3.65
2022-07-26T09:24:07.182Z,4.90
2022-07-26T09:26:33.925Z,5.03
2022-07-26T09:29:08.581Z,6.75
2022-07-26T09:31:37.678Z,4.72
2022-07-26T09:34:06.607Z,7.38
2022-07-26T09:36:33.670Z,5.07
2022-07-26T09:39:03.235Z,7.72
2022-07-26T09:41:33.186Z,4.93
2022-07-26T09:44:03.309Z,5.13
2022-07-26T09:46:31.042Z,6.25
2022-07-26T09:49:15.863Z,5.22
2022-07-26T09:51:45.427Z,8.63
2022-07-26T09:54:17.693Z,6.60
2022-07-26T09:56:49.836Z,4.43
2022-07-26T09:59:19.300Z,8.60
2022-07-26T10:01:46.650Z,7.07
2022-07-26T10:04:14.537Z,6.75
2022-07-26T10:06:42.457Z,4.95
2022-07-26T10:09:09.891Z,5.00
2022-07-26T10:11:50.710Z,6.47
2022-07-26T10:14:40.917Z,6.75
2022-07-26T10:17:28.918Z,6.95
2022-07-26T10:20:01.650Z,6.57
2022-07-26T10:22:33.901Z,5.20
2022-07-26T10:25:18.677Z,5.47
2022-07-26T10:27:50.740Z,3.13
2022-07-26T10:30:17.620Z,6.35
2022-07-26T10:33:13.315Z,4.88
2022-07-26T10:35:44.775Z,4.40
2022-07-26T10:38:26.882Z,4.03
2022-07-26T10:41:06.295Z,5.55
2022-07-26T10:43:42.286Z,6.10
2022-07-26T10:46:18.569Z,2.78
2022-07-26T10:49:06.441Z,4.05
2022-07-26T10:51:38.368Z,2.70
2022-07-26T10:54:10.720Z,6.78
2022-07-26T10:56:38.600Z,7.25
2022-07-26T10:59:06.675Z,5.05
2022-07-26T11:01:37.563Z,6.05
2022-07-26T11:04:05.750Z,4.93
2022-07-26T11:06:32.741Z,3.67
2022-07-26T11:09:10.610Z,4.57
2022-07-26T11:11:37.305Z,5.22
2022-07-26T11:14:06.846Z,9.13
2022-07-26T11:16:41.982Z,6.57
2022-07-26T11:19:25.857Z,4.75
2022-07-26T11:21:58.977Z,4.93
2022-07-26T11:24:26.782Z,7.00
2022-07-26T11:26:53.817Z,7.13
2022-07-26T11:29:38.009Z,7.25
2022-07-26T11:32:17.647Z,5.45
2022-07-26T11:34:45.705Z,5.72
2022-07-26T11:37:12.604Z,5.30
2022-07-26T11:39:39.717Z,4.93
2022-07-26T11:42:13.051Z,5.75
2022-07-26T11:44:44.937Z,6.35
2022-07-26T11:47:15.280Z,6.85
2022-07-26T11:50:00.207Z,4.50
2022-07-26T11:52:32.383Z,3.33
2022-07-26T11:54:59.810Z,5.03
2022-07-26T11:57:31.731Z,5.18
2022-07-26T11:59:59.786Z,5.80
2022-07-26T12:02:26.602Z,8.07
2022-07-26T12:05:14.425Z,7.22
2022-07-26T12:08:00.538Z,6.38
2022-07-26T12:10:28.073Z,3.53
2022-07-26T12:13:10.926Z,5.72
2022-07-26T12:15:48.943Z,5.15
2022-07-26T12:18:29.820Z,5.38
2022-07-26T12:21:08.920Z,11.63
2022-07-26T12:23:52.984Z,8.57
2022-07-26T12:26:27.768Z,12.20
2022-07-26T12:28:55.583Z,6.30
2022-07-26T12:31:30.500Z,5.95
2022-07-26T12:33:58.183Z,5.82
2022-07-26T12:36:28.332Z,7.53
2022-07-26T12:39:00.602Z,9.38
2022-07-26T12:41:42.418Z,8.18
2022-07-26T12:44:13.052Z,7.63
2022-07-26T12:46:40.242Z,7.50
2022-07-26T12:49:07.047Z,13.98
2022-07-26T12:51:34.033Z,8.60
2022-07-26T12:54:00.934Z,10.65
2022-07-26T12:56:27.786Z,6.97
2022-07-26T12:59:00.642Z,7.72
2022-07-26T13:01:28.915Z,9.85
2022-07-26T13:03:56.075Z,4.45
2022-07-26T13:06:22.854Z,9.95
2022-07-26T13:08:50.048Z,5.75
2022-07-26T13:11:16.768Z,7.82
2022-07-26T13:13:43.510Z,7.07
2022-07-26T13:16:12.325Z,11.00
2022-07-26T13:18:39.565Z,7.00
2022-07-26T13:21:06.427Z,11.77
2022-07-26T13:23:35.730Z,12.50
2022-07-26T13:26:03.481Z,8.13
2022-07-26T13:28:30.838Z,10.10
2022-07-26T13:30:57.705Z,8.32
2022-07-26T13:33:24.458Z,9.40
2022-07-26T13:35:51.146Z,11.35
2022-07-26T13:38:19.597Z,8.27
2022-07-26T13:40:46.399Z,8.98
2022-07-26T13:43:13.070Z,10.38
2022-07-26T13:45:39.788Z,12.05
2022-07-26T13:48:07.126Z,11.13
2022-07-26T13:50:33.915Z,9.90
2022-07-26T13:53:00.652Z,10.02
2022-07-26T13:55:27.345Z,6.80
2022-07-26T13:57:57.280Z,8.85
2022-07-26T14:00:26.933Z,8.70
2022-07-26T14:02:54.905Z,11.48
2022-07-26T14:05:21.829Z,7.60
2022-07-26T14:07:48.633Z,9.95
2022-07-26T14:10:15.387Z,10.18
2022-07-26T14:12:42.201Z,9.23
2022-07-26T14:15:18.031Z,7.22
2022-07-26T14:17:48.109Z,10.55
2022-07-26T14:20:17.047Z,6.60
2022-07-26T14:22:44.532Z,6.68
2022-07-26T14:25:11.498Z,8.50
2022-07-26T14:27:38.303Z,5.60
2022-07-26T14:30:05.650Z,7.93
2022-07-26T14:32:32.343Z,9.82
2022-07-26T14:34:59.040Z,5.65
2022-07-26T14:37:43.204Z,8.43
2022-07-26T14:40:16.051Z,6.25
2022-07-26T14:42:43.394Z,6.85
2022-07-26T14:45:11.191Z,8.55
2022-07-26T14:47:37.929Z,6.53
2022-07-26T14:50:07.554Z,6.35
2022-07-26T14:52:38.019Z,7.90
2022-07-26T14:55:05.624Z,8.90
2022-07-26T14:57:32.315Z,5.25
2022-07-26T14:59:59.297Z,7.13
2022-07-26T15:02:26.425Z,7.72
2022-07-26T15:04:53.299Z,6.78
2022-07-26T15:07:20.196Z,4.82
2022-07-26T15:09:46.862Z,8.63
2022-07-26T15:12:13.588Z,8.18
2022-07-26T15:14:42.052Z,11.82
2022-07-26T15:17:08.721Z,5.03
2022-07-26T15:19:35.394Z,8.43
2022-07-26T15:22:02.394Z,8.73
2022-07-26T15:24:29.121Z,8.45
2022-07-26T15:26:55.841Z,6.95
2022-07-26T15:29:22.572Z,6.53
2022-07-26T15:31:50.385Z,6.05
2022-07-26T15:34:17.189Z,6.90
2022-07-26T15:36:43.905Z,6.90
2022-07-26T15:39:18.419Z,6.88
2022-07-26T15:41:47.181Z,8.57
2022-07-26T15:44:17.203Z,7.65
2022-07-26T15:46:45.824Z,5.85
2022-07-26T15:49:15.653Z,8.77
2022-07-26T15:51:43.466Z,7.20
2022-07-26T15:54:12.158Z,4.13
2022-07-26T15:56:39.512Z,5.03
2022-07-26T15:59:09.190Z,8.70
2022-07-26T16:01:36.803Z,8.02
2022-07-26T16:04:05.239Z,7.22
2022-07-26T16:06:33.819Z,7.05
2022-07-26T16:09:20.030Z,6.13
2022-07-26T16:11:48.436Z,7.05
2022-07-26T16:14:16.248Z,9.68
2022-07-26T16:16:43.492Z,4.63
2022-07-26T16:19:11.046Z,6.72
2022-07-26T16:21:38.245Z,4.80
2022-07-26T16:24:07.386Z,3.88
2022-07-26T16:26:35.369Z,5.72
2022-07-26T16:29:03.653Z,4.07
2022-07-26T16:31:31.137Z,10.05
2022-07-26T16:33:57.968Z,6.10
2022-07-26T16:36:24.838Z,7.15
2022-07-26T16:38:51.834Z,5.10
2022-07-26T16:41:18.817Z,7.45
2022-07-26T16:43:45.584Z,6.88
2022-07-26T16:46:12.330Z,6.65
2022-07-26T16:48:39.144Z,6.63
2022-07-26T16:51:06.057Z,2.95
2022-07-26T16:53:32.752Z,7.40
2022-07-26T16:55:59.834Z,6.60
2022-07-26T16:58:26.630Z,6.32
2022-07-26T17:00:53.441Z,10.13
2022-07-26T17:03:20.376Z,7.32
2022-07-26T17:05:47.231Z,8.65
2022-07-26T17:08:13.962Z,5.38
2022-07-26T17:10:42.042Z,5.68
2022-07-26T17:13:09.046Z,5.60
2022-07-26T17:15:36.236Z,5.32
2022-07-26T17:18:04.174Z,5.95
2022-07-26T17:20:30.917Z,9.38
2022-07-26T17:22:57.625Z,6.22
2022-07-26T17:25:24.336Z,6.82
2022-07-26T17:27:51.261Z,4.53
2022-07-26T17:30:18.010Z,6.32
2022-07-26T17:32:44.872Z,5.07
2022-07-26T17:35:11.713Z,6.63
2022-07-26T17:37:38.486Z,10.63
2022-07-26T17:40:08.364Z,5.72
2022-07-26T17:42:36.495Z,6.55
2022-07-26T17:45:06.701Z,5.78
2022-07-26T17:52:52.771Z,8.63
2022-07-26T17:55:20.480Z,7.75
2022-07-26T17:57:48.609Z,8.05
2022-07-26T18:00:19.298Z,6.57
2022-07-26T18:02:46.570Z,8.32
2022-07-26T18:05:13.925Z,7.18
2022-07-26T18:07:40.837Z,5.03
2022-07-26T18:10:08.037Z,4.97
2022-07-26T18:12:34.899Z,6.90
2022-07-26T18:15:01.577Z,8.18
2022-07-26T18:17:28.283Z,7.55
2022-07-26T18:19:55.175Z,5.20
2022-07-26T18:22:23.144Z,7.85
2022-07-26T18:24:49.877Z,6.85
2022-07-26T18:27:16.577Z,10.00
2022-07-26T18:29:43.324Z,3.20
2022-07-26T18:32:10.088Z,7.32
2022-07-26T18:34:36.834Z,7.15
2022-07-26T18:37:04.705Z,3.70
2022-07-26T18:39:33.176Z,6.93
2022-07-26T18:42:00.111Z,3.33
2022-07-26T18:44:26.826Z,5.82
2022-07-26T18:46:55.944Z,6.57
2022-07-26T18:49:23.124Z,4.90
2022-07-26T18:51:50.208Z,4.00
2022-07-26T18:54:19.597Z,4.35
2022-07-26T18:56:46.349Z,5.43
2022-07-26T18:59:13.462Z,6.55
2022-07-26T19:01:40.523Z,3.28
2022-07-26T19:04:07.730Z,4.75
2022-07-26T19:06:35.401Z,3.88
2022-07-26T19:09:02.229Z,3.80
2022-07-26T19:11:30.219Z,7.13
2022-07-26T19:13:57.063Z,4.68
2022-07-26T19:16:26.574Z,5.13
2022-07-26T19:18:57.301Z,2.65
2022-07-26T19:21:24.547Z,3.38
2022-07-26T19:23:51.236Z,6.72
2022-07-26T19:26:18.128Z,6.80
2022-07-26T19:28:44.961Z,6.53
2022-07-26T19:31:11.731Z,3.10
2022-07-26T19:33:38.528Z,4.80
2022-07-26T19:36:05.378Z,2.80
2022-07-26T19:38:33.004Z,5.43
2022-07-26T19:41:00.446Z,4.65
2022-07-26T19:43:27.717Z,4.72
2022-07-26T19:45:54.529Z,7.80
2022-07-26T19:48:21.415Z,4.57
2022-07-26T19:50:48.636Z,3.78
2022-07-26T19:53:15.395Z,5.25
2022-07-26T19:55:42.461Z,6.13
2022-07-26T19:58:09.450Z,4.72
2022-07-26T20:00:36.315Z,4.07
2022-07-26T20:03:03.139Z,4.65
2022-07-26T20:05:30.271Z,6.50
2022-07-26T20:07:57.066Z,2.58
2022-07-26T20:10:27.295Z,3.70
2022-07-26T20:12:56.783Z,3.85
2022-07-26T20:15:23.595Z,5.68
2022-07-26T20:17:50.274Z,4.13
2022-07-26T20:20:17.910Z,4.28
2022-07-26T20:22:44.732Z,6.13
2022-07-26T20:25:11.889Z,6.13
2022-07-26T20:27:38.700Z,5.72
2022-07-26T20:30:06.897Z,6.32
2022-07-26T20:32:33.624Z,4.43
2022-07-26T20:35:00.374Z,4.05
2022-07-26T20:37:27.166Z,3.00
2022-07-26T20:39:53.864Z,4.72
2022-07-26T20:42:22.167Z,3.22
2022-07-26T20:44:50.127Z,3.38
2022-07-26T20:47:16.803Z,3.00
2022-07-26T20:49:43.514Z,3.03
2022-07-26T20:52:10.415Z,3.15
2022-07-26T20:54:38.206Z,4.35
2022-07-26T20:57:04.960Z,9.18
2022-07-26T20:59:32.364Z,7.28
2022-07-26T21:01:59.305Z,7.00
2022-07-26T21:04:26.224Z,5.93
2022-07-26T21:06:53.168Z,2.83
2022-07-26T21:09:19.895Z,4.05
2022-07-26T21:11:46.806Z,4.18
2022-07-26T21:14:13.476Z,3.42
2022-07-26T21:16:40.246Z,3.33
2022-07-26T21:19:07.087Z,2.53
2022-07-26T21:21:34.682Z,3.58
2022-07-26T21:24:01.394Z,5.10
2022-07-26T21:26:28.156Z,2.08
2022-07-26T21:28:54.850Z,4.78
2022-07-26T21:31:21.661Z,5.03
2022-07-26T21:33:48.318Z,9.02
2022-07-26T21:36:14.997Z,21.02
2022-07-26T21:38:42.065Z,12.35
2022-07-26T21:41:08.803Z,4.93
2022-07-26T21:43:39.989Z,3.85
2022-07-26T21:46:12.217Z,5.53
2022-07-26T21:48:39.813Z,3.88
2022-07-26T21:51:06.604Z,5.55
2022-07-26T21:53:33.288Z,4.70
2022-07-26T21:56:00.042Z,3.28
2022-07-26T21:58:28.060Z,4.75
2022-07-26T22:01:03.288Z,6.85
2022-07-26T22:03:35.588Z,9.32
2022-07-26T22:06:02.455Z,7.57
2022-07-26T22:08:29.143Z,11.95
2022-07-26T22:10:55.841Z,6.38
2022-07-26T22:13:22.576Z,4.45
2022-07-26T22:15:49.373Z,6.05
2022-07-26T22:18:16.440Z,13.27
2022-07-26T22:20:44.125Z,8.20
2022-07-26T22:23:12.003Z,6.75
2022-07-26T22:25:40.043Z,8.43
2022-07-26T22:28:08.086Z,6.88
2022-07-26T22:30:35.307Z,7.13
2022-07-26T22:33:03.810Z,8.70
2022-07-26T22:35:32.263Z,8.57
2022-07-26T22:38:06.840Z,5.43
2022-07-26T22:40:34.013Z,5.13
2022-07-26T22:43:00.951Z,7.22
2022-07-26T22:45:28.892Z,4.50
2022-07-26T22:47:56.707Z,4.55
2022-07-26T22:50:24.926Z,4.90
2022-07-26T22:52:52.556Z,3.47
2022-07-26T22:55:20.121Z,5.15
2022-07-26T22:57:46.893Z,4.90
2022-07-26T23:00:16.341Z,2.67
2022-07-26T23:02:43.736Z,4.43
2022-07-26T23:05:11.348Z,7.25
2022-07-26T23:07:38.804Z,4.68
2022-07-26T23:10:08.909Z,4.90
2022-07-26T23:12:36.397Z,3.50
2022-07-26T23:15:04.813Z,4.43
2022-07-26T23:17:31.836Z,6.78
2022-07-26T23:19:58.637Z,5.38
2022-07-26T23:22:25.450Z,3.65
2022-07-26T23:24:52.131Z,5.68
2022-07-26T23:27:20.306Z,5.53
2022-07-26T23:29:48.345Z,4.47
2022-07-26T23:32:16.493Z,10.18
2022-07-26T23:34:43.361Z,7.63
2022-07-26T23:37:10.092Z,5.05
2022-07-26T23:39:37.073Z,5.30
2022-07-26T23:42:03.958Z,4.10
2022-07-26T23:44:31.097Z,3.63
2022-07-26T23:46:58.741Z,5.32
2022-07-26T23:49:26.116Z,5.38
2022-07-26T23:51:53.117Z,5.20
2022-07-26T23:54:19.957Z,6.75
2022-07-26T23:56:47.450Z,4.15
2022-07-26T23:59:14.739Z,1.75
